createdAt,value
2018-07-09T00:01:44.428Z,18.80
2018-07-09T00:04:19.507Z,18.80
2018-07-09T00:06:54.747Z,18.80
2018-07-09T00:09:29.986Z,18.80
2018-07-09T00:12:04.945Z,18.70
2018-07-09T00:14:39.789Z,18.70
2018-07-09T00:17:14.933Z,18.70
2018-07-09T00:19:49.839Z,18.60
2018-07-09T00:22:24.744Z,18.50
2018-07-09T00:24:59.698Z,18.50
2018-07-09T00:27:34.754Z,18.50
2018-07-09T00:30:09.516Z,18.40
2018-07-09T00:32:44.705Z,18.40
2018-07-09T00:35:19.777Z,18.30
2018-07-09T00:37:54.754Z,18.30
2018-07-09T00:40:29.894Z,18.30
2018-07-09T00:43:04.843Z,18.20
2018-07-09T00:45:39.804Z,18.20
2018-07-09T00:48:14.792Z,18.10
2018-07-09T00:50:50.133Z,18.10
2018-07-09T00:53:25.118Z,18.10
2018-07-09T00:56:00.356Z,18.00
2018-07-09T00:58:35.381Z,18.00
2018-07-09T01:01:10.285Z,17.90
2018-07-09T01:03:45.456Z,17.90
2018-07-09T01:06:20.219Z,17.90
2018-07-09T01:08:49.726Z,17.90
2018-07-09T01:11:35.984Z,17.90
2018-07-09T01:14:10.848Z,17.80
2018-07-09T01:16:46.090Z,17.80
2018-07-09T01:19:21.504Z,17.70
2018-07-09T01:21:56.871Z,17.60
2018-07-09T01:24:31.746Z,17.60
2018-07-09T01:27:07.179Z,17.50
2018-07-09T01:34:45.839Z,17.40
2018-07-09T01:37:20.524Z,17.30
2018-07-09T01:39:55.642Z,17.30
2018-07-09T01:42:30.490Z,17.30
2018-07-09T01:45:05.997Z,17.30
2018-07-09T01:47:41.020Z,17.30
2018-07-09T01:50:15.923Z,17.20
2018-07-09T01:55:25.032Z,17.10
2018-07-09T01:58:00.084Z,17.00
2018-07-09T02:00:35.449Z,17.00
2018-07-09T02:03:10.384Z,17.00
2018-07-09T02:05:45.560Z,17.00
2018-07-09T02:08:20.585Z,17.00
2018-07-09T02:10:55.799Z,16.90
2018-07-09T02:13:29.794Z,16.90
2018-07-09T02:16:04.588Z,16.90
2018-07-09T02:18:39.723Z,16.90
2018-07-09T02:21:14.755Z,16.90
2018-07-09T02:23:49.638Z,16.90
2018-07-09T02:26:25.134Z,16.80
2018-07-09T02:29:00.149Z,16.70
2018-07-09T02:31:35.040Z,16.70
2018-07-09T02:34:10.042Z,16.70
2018-07-09T02:36:45.007Z,16.70
2018-07-09T02:39:19.836Z,16.60
2018-07-09T02:41:55.066Z,16.60
2018-07-09T02:44:30.170Z,16.60
2018-07-09T02:47:05.163Z,16.60
2018-07-09T02:49:40.338Z,16.50
2018-07-09T02:52:15.051Z,16.50
2018-07-09T02:57:24.755Z,16.50
2018-07-09T02:59:59.806Z,16.50
2018-07-09T03:02:35.073Z,16.40
2018-07-09T03:05:09.992Z,16.40
2018-07-09T03:07:45.206Z,16.40
2018-07-09T03:10:19.911Z,16.30
2018-07-09T03:15:29.662Z,16.30
2018-07-09T03:18:04.992Z,16.20
2018-07-09T03:20:39.827Z,16.10
2018-07-09T03:23:14.599Z,16.10
2018-07-09T03:25:49.791Z,16.10
2018-07-09T03:28:24.881Z,16.10
2018-07-09T03:30:59.808Z,16.10
2018-07-09T03:33:34.786Z,16.10
2018-07-09T03:36:09.556Z,16.00
2018-07-09T03:41:19.341Z,16.00
2018-07-09T03:43:54.514Z,15.90
2018-07-09T03:46:29.325Z,15.90
2018-07-09T03:49:04.490Z,15.90
2018-07-09T03:51:39.211Z,15.90
2018-07-09T03:54:14.241Z,15.80
2018-07-09T03:56:49.122Z,15.80
2018-07-09T03:59:24.793Z,15.80
2018-07-09T04:02:00.852Z,15.80
2018-07-09T04:04:35.855Z,15.80
2018-07-09T04:07:10.841Z,15.80
2018-07-09T04:09:45.928Z,15.80
2018-07-09T04:12:21.411Z,15.80
2018-07-09T04:14:56.117Z,15.80
2018-07-09T04:17:31.136Z,15.90
2018-07-09T04:20:06.483Z,15.90
2018-07-09T04:22:41.507Z,15.90
2018-07-09T04:25:16.362Z,15.90
2018-07-09T04:27:51.610Z,15.90
2018-07-09T04:30:27.025Z,16.00
2018-07-09T04:33:01.902Z,16.00
2018-07-09T04:35:37.262Z,16.00
2018-07-09T04:38:12.178Z,16.00
2018-07-09T04:40:46.959Z,16.10
2018-07-09T04:43:22.061Z,16.10
2018-07-09T04:45:57.206Z,16.10
2018-07-09T04:48:32.275Z,16.00
2018-07-09T04:51:07.950Z,16.00
2018-07-09T04:53:43.939Z,16.00
2018-07-09T04:56:19.151Z,16.00
2018-07-09T04:58:54.619Z,16.00
2018-07-09T05:01:29.574Z,16.10
2018-07-09T05:04:04.599Z,16.10
2018-07-09T05:06:39.700Z,16.20
2018-07-09T05:09:14.818Z,16.20
2018-07-09T05:11:49.764Z,16.20
2018-07-09T05:14:25.012Z,16.30
2018-07-09T05:16:59.916Z,16.30
2018-07-09T05:19:35.443Z,16.40
2018-07-09T05:22:11.056Z,16.40
2018-07-09T05:24:46.517Z,16.40
2018-07-09T05:27:21.724Z,16.40
2018-07-09T05:29:57.087Z,16.40
2018-07-09T05:35:07.114Z,16.40
2018-07-09T05:37:42.164Z,16.50
2018-07-09T05:40:11.938Z,16.50
2018-07-09T05:45:10.965Z,16.50
2018-07-09T05:47:40.862Z,16.50
2018-07-09T05:50:10.377Z,16.60
2018-07-09T05:52:39.790Z,16.70
2018-07-09T05:57:39.171Z,16.70
2018-07-09T06:00:08.535Z,16.80
2018-07-09T06:02:44.018Z,16.80
2018-07-09T06:05:13.341Z,16.80
2018-07-09T06:07:43.188Z,16.90
2018-07-09T06:10:13.061Z,17.10
2018-07-09T06:12:42.590Z,17.20
2018-07-09T06:15:11.991Z,17.20
2018-07-09T06:17:41.314Z,17.20
2018-07-09T06:20:11.239Z,17.20
2018-07-09T06:22:40.874Z,17.20
2018-07-09T06:25:10.276Z,17.20
2018-07-09T06:27:39.779Z,17.20
2018-07-09T06:30:09.027Z,17.20
2018-07-09T06:32:44.561Z,17.20
2018-07-09T06:35:20.679Z,17.20
2018-07-09T06:37:55.861Z,17.20
2018-07-09T06:40:30.725Z,17.20
2018-07-09T06:43:00.215Z,17.30
2018-07-09T06:45:35.688Z,17.30
2018-07-09T06:48:10.780Z,17.30
2018-07-09T06:50:46.134Z,17.30
2018-07-09T06:53:21.224Z,17.30
2018-07-09T06:55:56.118Z,17.40
2018-07-09T06:58:31.422Z,17.40
2018-07-09T07:01:06.681Z,17.50
2018-07-09T07:03:36.094Z,17.50
2018-07-09T07:06:11.009Z,17.50
2018-07-09T07:08:46.685Z,17.60
2018-07-09T07:11:22.035Z,17.60
2018-07-09T07:13:56.948Z,17.70
2018-07-09T07:16:32.186Z,17.70
2018-07-09T07:19:07.543Z,17.80
2018-07-09T07:21:42.718Z,18.00
2018-07-09T07:24:17.809Z,18.10
2018-07-09T07:26:53.413Z,18.20
2018-07-09T07:29:28.973Z,18.40
2018-07-09T07:32:04.729Z,18.50
2018-07-09T07:34:39.650Z,18.50
2018-07-09T07:37:15.208Z,18.60
2018-07-09T07:39:50.270Z,18.70
2018-07-09T07:42:25.438Z,18.80
2018-07-09T07:45:00.745Z,19.00
2018-07-09T07:47:35.797Z,19.10
2018-07-09T07:50:10.697Z,19.10
2018-07-09T07:52:45.643Z,19.20
2018-07-09T07:55:15.117Z,19.40
2018-07-09T07:57:50.517Z,19.50
2018-07-09T08:00:26.076Z,19.60
2018-07-09T08:03:01.340Z,19.60
2018-07-09T08:05:36.974Z,19.60
2018-07-09T08:08:12.044Z,19.50
2018-07-09T08:10:47.074Z,19.50
2018-07-09T08:13:29.351Z,19.50
2018-07-09T08:15:51.453Z,19.60
2018-07-09T08:18:26.768Z,19.70
2018-07-09T08:21:02.224Z,20.00
2018-07-09T08:23:37.222Z,20.00
2018-07-09T08:26:12.231Z,20.10
2018-07-09T08:28:47.272Z,20.20
2018-07-09T08:31:22.796Z,20.20
2018-07-09T08:33:58.271Z,20.20
2018-07-09T08:36:33.087Z,20.10
2018-07-09T08:39:08.279Z,20.20
2018-07-09T08:41:43.723Z,20.30
2018-07-09T08:44:18.920Z,20.40
2018-07-09T08:46:53.883Z,20.40
2018-07-09T08:49:28.833Z,20.50
2018-07-09T08:52:04.081Z,20.50
2018-07-09T08:54:39.280Z,20.60
2018-07-09T08:57:14.053Z,20.70
2018-07-09T08:59:49.125Z,20.80
2018-07-09T09:04:58.546Z,21.00
2018-07-09T09:07:34.055Z,21.20
2018-07-09T09:10:09.079Z,21.20
2018-07-09T09:12:44.268Z,21.20
2018-07-09T09:15:19.969Z,21.40
2018-07-09T09:17:54.892Z,21.70
2018-07-09T09:20:29.838Z,22.20
2018-07-09T09:25:39.132Z,23.20
2018-07-09T09:28:14.161Z,23.30
2018-07-09T09:30:49.108Z,23.70
2018-07-09T09:33:24.491Z,24.00
2018-07-09T09:35:59.838Z,24.20
2018-07-09T09:41:09.615Z,24.40
2018-07-09T09:43:44.512Z,24.30
2018-07-09T09:46:19.561Z,24.00
2018-07-09T09:48:48.776Z,23.70
2018-07-09T09:51:18.051Z,23.40
2018-07-09T09:56:16.227Z,23.10
2018-07-09T09:58:45.545Z,23.00
2018-07-09T10:01:15.104Z,22.70
2018-07-09T10:03:44.542Z,22.60
2018-07-09T10:06:14.077Z,22.60
2018-07-09T10:08:43.629Z,22.70
2018-07-09T10:11:13.275Z,22.80
2018-07-09T10:13:42.585Z,22.90
2018-07-09T10:16:11.790Z,23.00
2018-07-09T10:18:41.310Z,23.00
2018-07-09T10:21:11.750Z,23.10
2018-07-09T10:23:41.537Z,23.20
2018-07-09T10:26:10.933Z,23.40
2018-07-09T10:28:40.312Z,23.50
2018-07-09T10:31:09.576Z,23.60
2018-07-09T10:33:39.132Z,23.60
2018-07-09T10:36:09.032Z,23.70
2018-07-09T10:38:38.535Z,23.80
2018-07-09T10:41:08.243Z,24.00
2018-07-09T10:43:37.968Z,24.30
2018-07-09T10:46:07.773Z,24.70
2018-07-09T10:48:43.066Z,25.00
2018-07-09T10:53:52.623Z,25.70
2018-07-09T10:56:27.794Z,25.90
2018-07-09T10:59:02.729Z,26.10
2018-07-09T11:01:37.713Z,26.20
2018-07-09T11:04:12.636Z,26.40
2018-07-09T11:06:47.895Z,26.50
2018-07-09T11:09:22.798Z,26.30
2018-07-09T11:11:57.685Z,26.00
2018-07-09T11:14:33.583Z,25.80
2018-07-09T11:17:08.435Z,25.40
2018-07-09T11:19:43.846Z,25.10
2018-07-09T11:22:18.894Z,25.00
2018-07-09T11:24:53.846Z,25.00
2018-07-09T11:27:28.837Z,25.10
2018-07-09T11:30:04.339Z,25.40
2018-07-09T11:32:39.304Z,25.70
2018-07-09T11:35:15.389Z,25.80
2018-07-09T11:37:50.969Z,26.00
2018-07-09T11:40:25.840Z,26.20
2018-07-09T11:43:00.849Z,26.40
2018-07-09T11:45:36.041Z,26.40
2018-07-09T11:50:40.640Z,26.80
2018-07-09T11:53:15.655Z,26.90
2018-07-09T11:55:45.237Z,27.00
2018-07-09T11:58:14.533Z,27.20
2018-07-09T12:00:43.916Z,27.30
2018-07-09T12:03:13.316Z,27.20
2018-07-09T12:05:43.215Z,26.90
2018-07-09T12:08:13.019Z,26.50
2018-07-09T12:13:11.565Z,26.10
2018-07-09T12:15:41.297Z,25.90
2018-07-09T12:20:46.517Z,26.10
2018-07-09T12:23:16.443Z,26.20
2018-07-09T12:25:46.111Z,26.40
2018-07-09T12:28:16.083Z,26.60
2018-07-09T12:30:45.705Z,26.80
2018-07-09T12:33:15.178Z,27.00
2018-07-09T12:35:46.392Z,27.10
2018-07-09T12:38:15.871Z,27.30
2018-07-09T12:40:45.989Z,27.20
2018-07-09T12:43:15.748Z,27.40
2018-07-09T12:45:45.117Z,27.40
2018-07-09T12:48:14.498Z,27.10
2018-07-09T12:50:44.099Z,27.00
2018-07-09T12:53:13.648Z,27.00
2018-07-09T12:55:43.363Z,26.70
2018-07-09T12:58:13.164Z,26.40
2018-07-09T13:00:48.135Z,26.00
2018-07-09T13:03:23.350Z,25.90
2018-07-09T13:05:55.131Z,25.80
2018-07-09T13:08:25.941Z,25.80
2018-07-09T13:10:55.483Z,25.90
2018-07-09T13:13:25.708Z,25.90
2018-07-09T13:15:55.376Z,26.10
2018-07-09T13:18:29.949Z,26.20
2018-07-09T13:20:59.741Z,26.30
2018-07-09T13:23:29.450Z,26.60
2018-07-09T13:25:59.940Z,26.90
2018-07-09T13:28:29.803Z,27.00
2018-07-09T13:30:59.780Z,27.10
2018-07-09T13:33:30.995Z,27.50
2018-07-09T13:36:00.773Z,27.60
2018-07-09T13:38:30.937Z,27.60
2018-07-09T13:41:01.372Z,27.50
2018-07-09T13:43:31.770Z,27.20
2018-07-09T13:46:02.060Z,27.00
2018-07-09T13:48:37.440Z,27.10
2018-07-09T13:51:12.748Z,27.40
2018-07-09T13:56:24.297Z,27.30
2018-07-09T13:58:59.650Z,27.50
2018-07-09T14:01:34.721Z,27.70
2018-07-09T14:04:10.335Z,27.90
2018-07-09T14:06:45.512Z,27.80
2018-07-09T14:09:20.831Z,27.80
2018-07-09T14:14:31.278Z,28.10
2018-07-09T14:17:07.013Z,28.20
2018-07-09T14:20:23.888Z,28.20
2018-07-09T14:22:59.335Z,28.10
2018-07-09T14:25:34.772Z,28.30
2018-07-09T14:28:09.784Z,28.30
2018-07-09T14:30:45.810Z,28.50
2018-07-09T14:33:20.972Z,28.40
2018-07-09T14:35:50.471Z,28.30
2018-07-09T14:38:19.961Z,28.10
2018-07-09T14:40:49.751Z,27.80
2018-07-09T14:43:19.744Z,27.50
2018-07-09T14:45:49.123Z,27.00
2018-07-09T14:48:18.706Z,26.80
2018-07-09T14:50:48.127Z,26.70
2018-07-09T14:53:17.577Z,26.40
2018-07-09T14:55:49.387Z,26.30
2018-07-09T15:00:47.870Z,26.00
2018-07-09T15:03:17.398Z,25.70
2018-07-09T15:05:46.721Z,25.60
2018-07-09T15:08:16.191Z,25.50
2018-07-09T15:10:45.675Z,25.60
2018-07-09T15:13:15.315Z,25.60
2018-07-09T15:15:45.025Z,25.60
2018-07-09T15:20:43.543Z,25.20
2018-07-09T15:23:13.030Z,24.90
2018-07-09T15:25:42.838Z,24.70
2018-07-09T15:28:12.198Z,24.50
2018-07-09T15:30:41.615Z,24.30
2018-07-09T15:33:10.946Z,24.00
2018-07-09T15:35:40.225Z,23.70
2018-07-09T15:38:10.077Z,23.30
2018-07-09T15:40:39.845Z,22.90
2018-07-09T15:43:09.233Z,22.70
2018-07-09T15:45:38.963Z,22.50
2018-07-09T15:48:08.828Z,22.30
2018-07-09T15:50:38.384Z,22.10
2018-07-09T15:53:07.798Z,21.90
2018-07-09T15:55:37.336Z,21.80
2018-07-09T15:58:06.861Z,21.80
2018-07-09T16:00:36.467Z,21.80
2018-07-09T16:03:06.247Z,22.00
2018-07-09T16:05:35.772Z,22.20
2018-07-09T16:08:05.576Z,22.40
2018-07-09T16:10:35.269Z,22.60
2018-07-09T16:13:04.664Z,22.70
2018-07-09T16:15:34.297Z,22.80
2018-07-09T16:18:03.990Z,23.10
2018-07-09T16:20:33.492Z,23.30
2018-07-09T16:23:03.071Z,23.60
2018-07-09T16:25:32.949Z,23.90
2018-07-09T16:28:02.245Z,24.20
2018-07-09T16:30:31.892Z,24.40
2018-07-09T16:33:01.341Z,24.40
2018-07-09T16:35:30.747Z,24.30
2018-07-09T16:38:00.457Z,24.30
2018-07-09T16:40:29.830Z,24.30
2018-07-09T16:42:59.103Z,24.40
2018-07-09T16:47:57.291Z,24.40
2018-07-09T16:50:26.653Z,24.30
2018-07-09T16:52:55.936Z,24.30
2018-07-09T16:57:54.282Z,24.30
2018-07-09T17:00:23.788Z,24.30
2018-07-09T17:02:53.431Z,24.10
2018-07-09T17:05:22.856Z,24.00
2018-07-09T17:07:52.938Z,24.00
2018-07-09T17:10:22.653Z,24.00
2018-07-09T17:12:52.356Z,23.90
2018-07-09T17:15:21.935Z,23.80
2018-07-09T17:17:51.317Z,23.70
2018-07-09T17:20:21.381Z,23.70
2018-07-09T17:22:56.591Z,23.70
2018-07-09T17:25:31.429Z,23.80
2018-07-09T17:28:06.596Z,23.80
2018-07-09T17:30:41.643Z,23.70
2018-07-09T17:33:16.641Z,23.70
2018-07-09T17:35:51.795Z,23.70
2018-07-09T17:38:26.866Z,23.70
2018-07-09T17:41:02.353Z,23.70
2018-07-09T17:43:37.484Z,23.60
2018-07-09T17:46:13.800Z,23.40
2018-07-09T17:48:49.062Z,23.20
2018-07-09T17:51:24.322Z,23.10
2018-07-09T17:53:59.517Z,23.10
2018-07-09T17:56:34.932Z,22.90
2018-07-09T17:59:10.401Z,22.80
2018-07-09T18:01:45.379Z,22.70
2018-07-09T18:04:20.656Z,22.60
2018-07-09T18:09:30.315Z,22.50
2018-07-09T18:12:05.294Z,22.30
2018-07-09T18:14:40.618Z,22.20
2018-07-09T18:17:15.476Z,21.90
2018-07-09T18:19:50.752Z,21.70
2018-07-09T18:22:26.287Z,21.50
2018-07-09T18:25:01.357Z,21.40
2018-07-09T18:30:10.796Z,21.40
2018-07-09T18:32:46.512Z,21.40
2018-07-09T18:35:22.138Z,21.60
2018-07-09T18:37:57.570Z,21.60
2018-07-09T18:40:32.857Z,21.80
2018-07-09T18:43:08.158Z,21.90
2018-07-09T18:45:42.889Z,21.90
2018-07-09T18:48:17.979Z,22.10
2018-07-09T18:51:00.508Z,22.10
2018-07-09T18:53:35.468Z,22.20
2018-07-09T18:56:13.280Z,22.10
2018-07-09T18:58:50.103Z,22.10
2018-07-09T19:01:25.325Z,22.00
2018-07-09T19:03:55.979Z,22.00
2018-07-09T19:06:51.125Z,22.00
2018-07-09T19:09:28.020Z,22.00
2018-07-09T19:12:04.666Z,22.00
2018-07-09T19:14:44.358Z,21.90
2018-07-09T19:18:01.067Z,21.70
2018-07-09T19:21:19.251Z,21.70
2018-07-09T19:23:53.467Z,21.50
2018-07-09T19:26:28.005Z,21.50
2018-07-09T19:29:01.861Z,21.50
2018-07-09T19:31:35.415Z,21.40
2018-07-09T19:34:09.628Z,21.30
2018-07-09T19:36:44.749Z,21.30
2018-07-09T19:39:19.480Z,21.20
2018-07-09T19:41:53.294Z,21.20
2018-07-09T19:44:28.664Z,21.10
2018-07-09T19:47:02.407Z,21.00
2018-07-09T19:49:35.989Z,20.90
2018-07-09T19:52:10.049Z,20.80
2018-07-09T19:57:18.686Z,20.50
2018-07-09T19:59:52.967Z,20.40
2018-07-09T20:02:27.591Z,20.40
2018-07-09T20:05:01.504Z,20.30
2018-07-09T20:07:35.297Z,20.20
2018-07-09T20:10:14.222Z,20.10
2018-07-09T20:14:01.071Z,20.10
2018-07-09T20:16:39.988Z,20.00
2018-07-09T20:19:14.017Z,19.90
2018-07-09T20:21:47.499Z,19.90
2018-07-09T20:24:21.232Z,19.90
2018-07-09T20:26:54.950Z,19.90
2018-07-09T20:29:28.832Z,19.90
2018-07-09T20:32:02.704Z,19.90
2018-07-09T20:34:36.638Z,19.90
2018-07-09T20:37:10.294Z,19.80
2018-07-09T20:39:43.856Z,19.60
2018-07-09T20:42:17.635Z,19.60
2018-07-09T20:44:51.244Z,19.60
2018-07-09T20:49:59.045Z,19.50
2018-07-09T20:52:32.728Z,19.40
2018-07-09T20:55:06.680Z,19.40
2018-07-09T20:57:40.430Z,19.30
2018-07-09T21:00:14.197Z,19.30
2018-07-09T21:05:21.899Z,19.20
2018-07-09T21:07:56.061Z,19.20
2018-07-09T21:10:29.756Z,19.10
2018-07-09T21:13:03.375Z,19.20
2018-07-09T21:15:37.361Z,19.20
2018-07-09T21:18:11.229Z,19.20
2018-07-09T21:20:45.059Z,19.20
2018-07-09T21:23:18.782Z,19.10
2018-07-09T21:25:52.426Z,19.20
2018-07-09T21:28:26.486Z,19.00
2018-07-09T21:31:02.120Z,19.00
2018-07-09T21:33:36.042Z,18.90
2018-07-09T21:36:10.066Z,18.90
2018-07-09T21:38:44.108Z,18.80
2018-07-09T21:41:17.936Z,18.70
2018-07-09T21:43:51.604Z,18.70
2018-07-09T21:46:25.302Z,18.70
2018-07-09T21:48:59.114Z,18.80
2018-07-09T21:51:33.269Z,18.80
2018-07-09T21:54:06.927Z,18.80
2018-07-09T21:56:40.679Z,18.80
2018-07-09T21:59:15.101Z,18.90
2018-07-09T22:01:49.021Z,18.90
2018-07-09T22:04:23.211Z,19.00
2018-07-09T22:06:57.113Z,18.90
2018-07-09T22:09:30.803Z,18.90
2018-07-09T22:12:04.623Z,18.90
2018-07-09T22:14:38.410Z,18.90
2018-07-09T22:17:12.154Z,18.80
2018-07-09T22:19:45.787Z,18.50
2018-07-09T22:22:19.640Z,18.50
2018-07-09T22:24:53.489Z,18.50
2018-07-09T22:27:27.510Z,18.50
2018-07-09T22:30:01.270Z,18.50
2018-07-09T22:32:36.343Z,18.40
2018-07-09T22:35:11.396Z,18.40
2018-07-09T22:37:46.428Z,18.30
2018-07-09T22:40:21.260Z,18.20
2018-07-09T22:48:05.826Z,18.10
2018-07-09T22:50:41.042Z,18.10
2018-07-09T22:53:15.884Z,18.10
2018-07-09T22:56:02.218Z,18.20
2018-07-09T22:58:38.582Z,18.10
2018-07-09T23:01:13.405Z,18.10
2018-07-09T23:03:48.425Z,18.00
2018-07-09T23:06:23.626Z,18.00
2018-07-09T23:10:18.119Z,18.00
2018-07-09T23:13:24.734Z,18.00
2018-07-09T23:16:42.376Z,18.10
2018-07-09T23:19:30.853Z,18.20
2018-07-09T23:22:17.179Z,18.10
2018-07-09T23:24:51.801Z,18.10
2018-07-09T23:27:25.289Z,18.00
2018-07-09T23:29:59.028Z,18.00
2018-07-09T23:32:32.684Z,18.00
2018-07-09T23:35:06.362Z,17.90
2018-07-09T23:37:40.221Z,17.70
2018-07-09T23:40:14.091Z,17.70
2018-07-09T23:42:47.784Z,17.80
2018-07-09T23:45:21.374Z,17.80
2018-07-09T23:47:55.123Z,17.70
2018-07-09T23:50:29.003Z,17.70
2018-07-09T23:53:02.579Z,17.70
2018-07-09T23:55:37.618Z,17.60
2018-07-09T23:59:26.168Z,17.60
